createdAt,value
2022-12-29T00:00:08.537Z,2.40
2022-12-29T00:02:41.933Z,2.20
2022-12-29T00:05:09.285Z,1.80
2022-12-29T00:07:36.252Z,1.70
2022-12-29T00:10:03.444Z,2.00
2022-12-29T00:12:50.401Z,2.60
2022-12-29T00:15:36.157Z,2.70
2022-12-29T00:18:03.376Z,3.30
2022-12-29T00:20:49.297Z,1.90
2022-12-29T00:23:35.121Z,2.00
2022-12-29T00:26:23.477Z,2.50
2022-12-29T00:29:10.375Z,2.80
2022-12-29T00:31:56.153Z,2.90
2022-12-29T00:34:41.879Z,3.20
2022-12-29T00:37:08.795Z,1.60
2022-12-29T00:40:05.227Z,2.30
2022-12-29T00:42:50.904Z,3.20
2022-12-29T00:45:18.157Z,2.60
2022-12-29T00:47:45.324Z,3.30
2022-12-29T00:50:12.226Z,3.60
2022-12-29T00:52:39.089Z,1.60
2022-12-29T00:55:06.455Z,1.60
2022-12-29T00:57:33.972Z,2.60
2022-12-29T01:00:01.352Z,3.20
2022-12-29T01:02:29.587Z,3.50
2022-12-29T01:04:56.697Z,2.60
2022-12-29T01:07:23.730Z,2.60
2022-12-29T01:10:09.533Z,2.10
2022-12-29T01:12:42.831Z,2.70
2022-12-29T01:15:11.963Z,2.40
2022-12-29T01:17:38.853Z,2.20
2022-12-29T01:20:06.133Z,2.00
2022-12-29T01:22:34.026Z,1.20
2022-12-29T01:25:00.943Z,2.90
2022-12-29T01:27:27.872Z,3.10
2022-12-29T01:29:54.730Z,3.50
2022-12-29T01:32:21.561Z,2.00
2022-12-29T01:34:48.397Z,3.30
2022-12-29T01:37:15.364Z,3.30
2022-12-29T01:39:42.213Z,3.30
2022-12-29T01:42:17.449Z,2.30
2022-12-29T01:44:52.494Z,2.70
2022-12-29T01:47:33.561Z,2.70
2022-12-29T01:50:22.924Z,3.00
2022-12-29T01:53:19.000Z,2.50
2022-12-29T01:55:49.675Z,3.40
2022-12-29T01:58:16.983Z,3.50
2022-12-29T02:00:44.995Z,3.00
2022-12-29T02:03:11.875Z,3.60
2022-12-29T02:05:47.436Z,3.00
2022-12-29T02:08:14.420Z,2.40
2022-12-29T02:10:41.316Z,3.00
2022-12-29T02:13:08.151Z,2.50
2022-12-29T02:15:53.743Z,2.50
2022-12-29T02:18:36.943Z,3.10
2022-12-29T02:21:34.320Z,3.40
2022-12-29T02:24:25.829Z,1.90
2022-12-29T02:27:13.979Z,3.30
2022-12-29T02:29:53.294Z,2.70
2022-12-29T02:32:29.640Z,2.10
2022-12-29T02:35:07.139Z,2.20
2022-12-29T02:37:40.478Z,3.30
2022-12-29T02:40:08.793Z,2.10
2022-12-29T02:42:48.325Z,3.10
2022-12-29T02:45:44.557Z,3.50
2022-12-29T02:48:17.242Z,3.00
2022-12-29T02:50:52.048Z,3.00
2022-12-29T02:53:38.957Z,3.20
2022-12-29T02:56:06.164Z,2.90
2022-12-29T02:58:33.132Z,2.80
2022-12-29T03:01:34.515Z,3.00
2022-12-29T03:04:24.938Z,2.70
2022-12-29T03:07:16.558Z,3.90
2022-12-29T03:09:52.779Z,3.40
2022-12-29T03:13:22.519Z,2.60
2022-12-29T03:16:20.282Z,3.50
2022-12-29T03:18:57.761Z,3.50
2022-12-29T03:21:44.770Z,3.40
2022-12-29T03:24:12.117Z,3.30
2022-12-29T03:26:39.099Z,1.90
2022-12-29T03:29:05.994Z,2.90
2022-12-29T03:31:32.941Z,2.90
2022-12-29T03:34:00.067Z,2.90
2022-12-29T03:36:49.394Z,3.40
2022-12-29T03:39:16.280Z,3.60
2022-12-29T03:41:45.569Z,4.50
2022-12-29T03:44:13.743Z,4.60
2022-12-29T03:46:41.406Z,3.30
2022-12-29T03:49:09.085Z,2.60
2022-12-29T03:51:35.955Z,4.30
2022-12-29T03:54:03.553Z,3.90
2022-12-29T03:56:30.571Z,3.20
2022-12-29T03:58:58.671Z,3.80
2022-12-29T04:01:31.989Z,3.50
2022-12-29T04:03:58.970Z,3.70
2022-12-29T04:06:26.212Z,4.70
2022-12-29T04:09:01.596Z,3.70
2022-12-29T04:11:33.093Z,3.50
2022-12-29T04:14:01.186Z,2.80
2022-12-29T04:16:29.611Z,3.50
2022-12-29T04:18:56.691Z,4.20
2022-12-29T04:21:23.617Z,2.80
2022-12-29T04:23:50.549Z,3.50
2022-12-29T04:26:17.727Z,2.90
2022-12-29T04:28:53.638Z,3.30
2022-12-29T04:31:40.921Z,2.80
2022-12-29T04:34:08.104Z,3.40
2022-12-29T04:36:35.121Z,3.50
2022-12-29T04:39:02.099Z,2.90
2022-12-29T04:41:29.310Z,3.10
2022-12-29T04:43:56.249Z,3.00
2022-12-29T04:46:43.448Z,3.40
2022-12-29T04:51:27.726Z,3.80
2022-12-29T04:53:54.628Z,3.80
2022-12-29T04:56:21.678Z,4.40
2022-12-29T04:58:48.839Z,3.90
2022-12-29T05:01:15.711Z,3.70
2022-12-29T05:03:44.048Z,2.70
2022-12-29T05:06:11.307Z,3.70
2022-12-29T05:08:38.243Z,3.50
2022-12-29T05:11:06.822Z,2.80
2022-12-29T05:13:34.497Z,3.40
2022-12-29T05:16:01.597Z,3.00
2022-12-29T05:18:29.000Z,3.30
2022-12-29T05:20:56.302Z,3.60
2022-12-29T05:23:24.324Z,4.10
2022-12-29T05:25:58.022Z,3.30
2022-12-29T05:28:48.011Z,2.80
2022-12-29T05:31:19.367Z,3.20
2022-12-29T05:33:47.213Z,4.00
2022-12-29T05:36:14.550Z,3.70
2022-12-29T05:38:46.125Z,3.00
2022-12-29T05:41:13.576Z,2.50
2022-12-29T05:44:03.176Z,2.90
2022-12-29T05:46:30.243Z,3.30
2022-12-29T05:49:09.544Z,3.30
2022-12-29T05:52:45.496Z,2.90
2022-12-29T05:55:12.852Z,3.60
2022-12-29T05:57:40.824Z,4.00
2022-12-29T06:00:12.236Z,3.90
2022-12-29T06:02:42.699Z,3.70
2022-12-29T06:05:10.279Z,4.10
2022-12-29T06:07:39.152Z,3.60
2022-12-29T06:10:07.525Z,2.70
2022-12-29T06:12:42.835Z,3.00
2022-12-29T06:15:10.868Z,2.80
2022-12-29T06:17:40.752Z,2.90
2022-12-29T06:20:09.072Z,4.00
2022-12-29T06:22:36.334Z,3.60
2022-12-29T06:25:05.381Z,4.40
2022-12-29T06:27:34.777Z,3.60
2022-12-29T06:30:01.954Z,3.70
2022-12-29T06:32:29.513Z,4.50
2022-12-29T06:35:02.397Z,2.90
2022-12-29T06:37:29.689Z,2.70
2022-12-29T06:39:57.093Z,3.00
2022-12-29T06:42:28.223Z,3.30
2022-12-29T06:45:14.120Z,2.80
2022-12-29T06:47:41.474Z,3.80
2022-12-29T06:50:09.268Z,3.70
2022-12-29T06:52:37.165Z,3.30
2022-12-29T06:55:05.230Z,3.80
2022-12-29T06:57:32.430Z,3.80
2022-12-29T06:59:59.579Z,4.90
2022-12-29T07:02:27.081Z,2.90
2022-12-29T07:04:54.374Z,3.00
2022-12-29T07:07:21.878Z,2.90
2022-12-29T07:09:48.885Z,3.40
2022-12-29T07:12:16.136Z,4.00
2022-12-29T07:17:29.273Z,3.90
2022-12-29T07:19:56.429Z,4.10
2022-12-29T07:22:23.683Z,3.30
2022-12-29T07:24:50.839Z,4.00
2022-12-29T07:27:18.188Z,4.70
2022-12-29T07:29:45.560Z,4.90
2022-12-29T07:32:12.876Z,3.20
2022-12-29T07:34:41.004Z,3.90
2022-12-29T07:37:08.202Z,3.40
2022-12-29T07:39:35.368Z,2.90
2022-12-29T07:42:05.074Z,3.50
2022-12-29T07:44:40.098Z,3.20
2022-12-29T07:47:17.101Z,3.40
2022-12-29T07:49:44.543Z,3.90
2022-12-29T07:52:11.720Z,3.10
2022-12-29T07:54:39.080Z,2.60
2022-12-29T07:57:07.701Z,2.90
2022-12-29T07:59:35.101Z,3.90
2022-12-29T08:02:02.576Z,3.10
2022-12-29T08:04:29.732Z,3.40
2022-12-29T08:06:56.848Z,3.40
2022-12-29T08:09:24.624Z,2.40
2022-12-29T08:11:52.174Z,2.90
2022-12-29T08:14:19.503Z,3.60
2022-12-29T08:16:46.441Z,3.50
2022-12-29T08:19:13.510Z,2.70
2022-12-29T08:21:40.589Z,3.50
2022-12-29T08:24:08.158Z,4.00
2022-12-29T08:26:35.839Z,3.60
2022-12-29T08:29:02.892Z,3.50
2022-12-29T08:31:29.954Z,2.90
2022-12-29T08:33:57.241Z,4.70
2022-12-29T08:36:24.472Z,3.30
2022-12-29T08:38:51.514Z,4.20
2022-12-29T08:41:18.399Z,2.80
2022-12-29T08:43:49.520Z,3.80
2022-12-29T08:46:17.529Z,3.30
2022-12-29T08:48:44.721Z,2.90
2022-12-29T08:51:11.877Z,4.00
2022-12-29T08:53:39.044Z,3.30
2022-12-29T08:56:06.881Z,2.70
2022-12-29T08:58:40.791Z,2.90
2022-12-29T09:01:08.112Z,3.40
2022-12-29T09:04:12.920Z,2.10
2022-12-29T09:06:22.517Z,3.00
2022-12-29T09:08:49.435Z,3.10
2022-12-29T09:11:19.977Z,4.50
2022-12-29T09:13:47.549Z,5.00
2022-12-29T09:16:14.960Z,3.00
2022-12-29T09:18:42.396Z,3.10
2022-12-29T09:21:10.631Z,3.40
2022-12-29T09:23:37.913Z,3.00
2022-12-29T09:26:05.046Z,4.20
2022-12-29T09:28:32.256Z,3.90
2022-12-29T09:30:59.722Z,3.60
2022-12-29T09:33:27.208Z,5.00
2022-12-29T09:35:56.126Z,3.00
2022-12-29T09:38:23.868Z,3.10
2022-12-29T09:40:53.801Z,3.90
2022-12-29T09:43:46.320Z,3.90
2022-12-29T09:46:27.783Z,3.60
2022-12-29T09:49:06.011Z,3.80
2022-12-29T09:51:32.999Z,3.60
2022-12-29T09:54:02.395Z,3.50
2022-12-29T09:56:29.503Z,3.50
2022-12-29T09:59:14.398Z,3.10
2022-12-29T10:01:52.923Z,2.80
2022-12-29T10:04:20.173Z,3.80
2022-12-29T10:07:19.873Z,4.40
2022-12-29T10:09:49.394Z,2.80
2022-12-29T10:12:35.042Z,4.00
2022-12-29T10:15:26.598Z,5.10
2022-12-29T10:17:59.551Z,3.90
2022-12-29T10:20:45.444Z,3.80
2022-12-29T10:23:23.490Z,3.50
2022-12-29T10:25:50.606Z,3.40
2022-12-29T10:28:23.225Z,2.30
2022-12-29T10:30:51.471Z,4.50
2022-12-29T10:33:21.964Z,3.40
2022-12-29T10:35:49.148Z,4.00
2022-12-29T10:38:52.899Z,3.10
2022-12-29T10:41:27.643Z,4.50
2022-12-29T10:43:55.989Z,3.40
2022-12-29T10:46:26.159Z,2.80
2022-12-29T10:48:53.128Z,3.60
2022-12-29T10:51:29.641Z,4.20
2022-12-29T10:54:04.513Z,3.00
2022-12-29T10:56:36.101Z,3.30
2022-12-29T10:59:18.170Z,3.00
2022-12-29T11:02:11.774Z,2.00
2022-12-29T11:07:22.152Z,3.70
2022-12-29T11:09:52.832Z,2.70
2022-12-29T11:12:27.333Z,2.80
2022-12-29T11:15:13.663Z,3.20
2022-12-29T11:18:10.772Z,3.30
2022-12-29T11:20:39.837Z,3.50
2022-12-29T11:23:41.152Z,2.60
2022-12-29T11:26:11.120Z,3.30
2022-12-29T11:28:39.644Z,3.40
2022-12-29T11:31:07.585Z,4.30
2022-12-29T11:33:39.271Z,4.10
2022-12-29T11:36:13.433Z,4.00
2022-12-29T11:38:41.968Z,3.50
2022-12-29T11:41:12.999Z,2.40
2022-12-29T11:43:42.532Z,4.30
2022-12-29T11:46:16.443Z,4.00
2022-12-29T11:48:43.672Z,2.00
2022-12-29T11:51:11.347Z,4.60
2022-12-29T11:53:41.304Z,3.40
2022-12-29T11:56:13.658Z,3.00
2022-12-29T11:58:40.789Z,4.00
2022-12-29T12:01:28.743Z,4.10
2022-12-29T12:04:06.695Z,4.20
2022-12-29T12:06:35.298Z,2.00
2022-12-29T12:09:06.324Z,3.90
2022-12-29T12:11:39.119Z,3.40
2022-12-29T12:14:18.142Z,3.90
2022-12-29T12:17:15.934Z,3.70
2022-12-29T12:19:50.740Z,3.60
2022-12-29T12:22:22.801Z,4.60
2022-12-29T12:25:03.163Z,4.20
2022-12-29T12:27:42.742Z,5.10
2022-12-29T12:30:20.601Z,5.60
2022-12-29T12:33:10.815Z,5.70
2022-12-29T12:35:54.030Z,5.40
2022-12-29T12:38:46.374Z,3.70
2022-12-29T12:41:21.609Z,3.50
2022-12-29T12:44:14.457Z,4.70
2022-12-29T12:47:07.927Z,3.10
2022-12-29T12:49:56.993Z,3.60
2022-12-29T12:52:50.598Z,4.80
2022-12-29T12:55:39.207Z,5.40
2022-12-29T12:58:09.507Z,5.60
2022-12-29T13:01:00.978Z,6.60
2022-12-29T13:03:59.497Z,4.00
2022-12-29T13:06:49.107Z,3.90
2022-12-29T13:09:58.554Z,3.30
2022-12-29T13:13:03.638Z,4.20
2022-12-29T13:15:36.915Z,4.40
2022-12-29T13:18:15.088Z,3.90
2022-12-29T13:20:57.702Z,5.00
2022-12-29T13:23:46.496Z,4.50
2022-12-29T13:26:44.237Z,5.70
2022-12-29T13:29:21.439Z,3.20
2022-12-29T13:32:12.321Z,3.50
2022-12-29T13:35:03.420Z,4.80
2022-12-29T13:37:31.712Z,5.00
2022-12-29T13:40:01.077Z,3.70
2022-12-29T13:42:27.947Z,3.20
2022-12-29T13:45:11.418Z,4.30
2022-12-29T13:47:40.000Z,4.60
2022-12-29T13:50:13.674Z,4.60
2022-12-29T13:52:45.727Z,6.00
2022-12-29T13:55:29.682Z,4.50
2022-12-29T13:58:02.529Z,5.20
2022-12-29T14:00:31.764Z,6.40
2022-12-29T14:03:37.210Z,5.90
2022-12-29T14:06:35.915Z,6.40
2022-12-29T14:09:04.989Z,5.90
2022-12-29T14:11:35.738Z,5.90
2022-12-29T14:14:22.131Z,2.80
2022-12-29T14:16:49.486Z,5.70
2022-12-29T14:19:37.807Z,3.60
2022-12-29T14:22:04.856Z,4.40
2022-12-29T14:24:37.910Z,3.50
2022-12-29T14:27:31.220Z,3.30
2022-12-29T14:29:58.148Z,3.90
2022-12-29T14:32:25.230Z,5.00
2022-12-29T14:34:53.384Z,4.20
2022-12-29T14:37:27.634Z,6.90
2022-12-29T14:40:20.463Z,3.30
2022-12-29T14:42:47.819Z,4.20
2022-12-29T14:45:14.745Z,5.10
2022-12-29T14:47:46.236Z,4.00
2022-12-29T14:50:27.430Z,4.10
2022-12-29T14:53:02.571Z,3.90
2022-12-29T14:55:44.213Z,3.80
2022-12-29T14:58:23.565Z,4.30
2022-12-29T15:00:50.534Z,4.00
2022-12-29T15:03:30.751Z,4.70
2022-12-29T15:06:09.840Z,4.00
2022-12-29T15:09:10.033Z,4.60
2022-12-29T15:11:36.941Z,4.20
2022-12-29T15:14:03.868Z,5.00
2022-12-29T15:16:33.110Z,5.40
2022-12-29T15:19:00.463Z,4.20
2022-12-29T15:21:30.314Z,4.50
2022-12-29T15:23:57.614Z,4.40
2022-12-29T15:26:25.057Z,4.50
2022-12-29T15:28:53.073Z,4.70
2022-12-29T15:31:27.950Z,4.60
2022-12-29T15:34:17.601Z,3.40
2022-12-29T15:36:44.685Z,3.50
2022-12-29T15:39:31.274Z,3.70
2022-12-29T15:42:05.327Z,3.50
2022-12-29T15:44:41.292Z,3.70
2022-12-29T15:47:14.830Z,3.30
2022-12-29T15:49:43.765Z,4.10
2022-12-29T15:52:10.902Z,3.80
2022-12-29T15:54:38.326Z,4.50
2022-12-29T15:57:05.413Z,3.00
2022-12-29T15:59:34.616Z,4.40
2022-12-29T16:02:07.179Z,3.20
2022-12-29T16:04:54.305Z,4.40
2022-12-29T16:07:41.348Z,3.10
2022-12-29T16:10:28.485Z,3.40
2022-12-29T16:12:55.475Z,3.20
2022-12-29T16:15:23.778Z,3.00
2022-12-29T16:17:52.226Z,4.90
2022-12-29T16:20:21.633Z,3.10
2022-12-29T16:22:54.625Z,4.20
2022-12-29T16:25:33.144Z,5.50
2022-12-29T16:28:00.282Z,3.20
2022-12-29T16:30:33.676Z,4.00
2022-12-29T16:33:03.290Z,4.10
2022-12-29T16:35:40.548Z,4.70
2022-12-29T16:38:15.914Z,5.40
2022-12-29T16:40:59.273Z,5.30
2022-12-29T16:43:26.188Z,5.70
2022-12-29T16:45:53.215Z,3.90
2022-12-29T16:48:21.117Z,4.20
2022-12-29T16:50:48.575Z,4.80
2022-12-29T16:53:29.949Z,3.80
2022-12-29T16:55:58.117Z,4.60
2022-12-29T16:58:26.926Z,4.30
2022-12-29T17:00:56.523Z,6.60
2022-12-29T17:03:24.618Z,4.30
2022-12-29T17:05:57.294Z,5.00
2022-12-29T17:09:00.351Z,4.30
2022-12-29T17:11:59.392Z,4.40
2022-12-29T17:14:47.801Z,4.70
2022-12-29T17:17:35.934Z,4.10
2022-12-29T17:20:10.427Z,4.40
2022-12-29T17:22:37.443Z,4.30
2022-12-29T17:25:05.478Z,3.50
2022-12-29T17:28:14.291Z,6.10
2022-12-29T17:30:41.348Z,5.10
2022-12-29T17:33:11.791Z,5.40
2022-12-29T17:35:38.830Z,4.80
2022-12-29T17:38:22.562Z,6.00
2022-12-29T17:43:17.074Z,5.60
2022-12-29T17:45:44.726Z,5.00
2022-12-29T17:48:16.176Z,3.70
2022-12-29T17:50:45.906Z,4.40
2022-12-29T17:53:14.707Z,4.20
2022-12-29T17:56:10.401Z,4.20
2022-12-29T17:58:37.690Z,4.30
2022-12-29T18:01:04.802Z,5.30
2022-12-29T18:03:42.120Z,5.00
2022-12-29T18:06:11.080Z,3.50
2022-12-29T18:08:39.164Z,4.50
2022-12-29T18:11:22.435Z,6.00
2022-12-29T18:13:49.536Z,4.60
2022-12-29T18:16:17.217Z,4.80
2022-12-29T18:18:44.340Z,4.90
2022-12-29T18:21:18.867Z,4.10
2022-12-29T18:23:46.313Z,5.50
2022-12-29T18:26:20.897Z,3.90
2022-12-29T18:28:53.920Z,4.60
2022-12-29T18:31:26.184Z,5.20
2022-12-29T18:33:54.686Z,4.10
2022-12-29T18:36:21.833Z,4.30
2022-12-29T18:38:48.873Z,5.00
2022-12-29T18:41:23.800Z,3.40
2022-12-29T18:43:50.775Z,4.10
2022-12-29T18:46:22.634Z,4.20
2022-12-29T18:48:51.128Z,5.00
2022-12-29T18:51:23.163Z,4.10
2022-12-29T18:53:51.117Z,3.70
2022-12-29T18:56:18.078Z,4.90
2022-12-29T18:58:45.116Z,5.50
2022-12-29T19:01:38.623Z,5.70
2022-12-29T19:04:05.726Z,5.90
2022-12-29T19:06:32.793Z,4.20
2022-12-29T19:08:59.743Z,4.10
2022-12-29T19:11:26.766Z,4.50
2022-12-29T19:13:54.451Z,3.70
2022-12-29T19:16:22.982Z,4.50
2022-12-29T19:19:05.746Z,5.20
2022-12-29T19:21:35.239Z,5.90
2022-12-29T19:24:02.288Z,4.40
2022-12-29T19:26:31.068Z,3.60
2022-12-29T19:28:58.497Z,3.70
2022-12-29T19:31:25.752Z,5.50
2022-12-29T19:33:53.845Z,5.10
2022-12-29T19:36:21.329Z,5.30
2022-12-29T19:38:48.456Z,4.40
2022-12-29T19:41:15.540Z,4.60
2022-12-29T19:43:43.939Z,5.70
2022-12-29T19:46:13.856Z,4.60
2022-12-29T19:48:41.457Z,4.70
2022-12-29T19:51:16.094Z,5.20
2022-12-29T19:53:44.274Z,4.80
2022-12-29T19:56:11.254Z,6.00
2022-12-29T19:58:42.632Z,5.30
2022-12-29T20:01:14.588Z,6.10
2022-12-29T20:03:41.876Z,4.10
2022-12-29T20:06:10.035Z,3.10
2022-12-29T20:08:37.384Z,5.50
2022-12-29T20:11:09.598Z,5.10
2022-12-29T20:13:36.720Z,6.30
2022-12-29T20:16:07.265Z,5.30
2022-12-29T20:18:35.924Z,5.70
2022-12-29T20:21:12.979Z,4.60
2022-12-29T20:23:40.633Z,4.20
2022-12-29T20:26:09.385Z,5.40
2022-12-29T20:28:36.394Z,5.50
2022-12-29T20:31:06.652Z,5.40
2022-12-29T20:33:34.269Z,3.30
2022-12-29T20:36:12.765Z,5.00
2022-12-29T20:38:39.677Z,4.10
2022-12-29T20:41:06.813Z,5.40
2022-12-29T20:43:34.547Z,5.00
2022-12-29T20:46:01.627Z,6.70
2022-12-29T20:48:30.523Z,6.70
2022-12-29T20:51:00.602Z,5.90
2022-12-29T20:53:28.284Z,5.90
2022-12-29T20:55:55.516Z,4.70
2022-12-29T20:58:23.877Z,5.50
2022-12-29T21:00:51.531Z,5.10
2022-12-29T21:03:18.765Z,5.80
2022-12-29T21:05:46.672Z,4.00
2022-12-29T21:08:13.738Z,5.00
2022-12-29T21:10:40.769Z,6.60
2022-12-29T21:13:07.839Z,6.10
2022-12-29T21:15:34.884Z,6.70
2022-12-29T21:18:01.887Z,5.90
2022-12-29T21:20:32.391Z,4.50
2022-12-29T21:23:01.174Z,5.20
2022-12-29T21:25:37.324Z,5.90
2022-12-29T21:28:08.660Z,4.40
2022-12-29T21:30:35.667Z,6.60
2022-12-29T21:33:03.145Z,4.50
2022-12-29T21:35:30.804Z,5.20
2022-12-29T21:37:57.809Z,6.30
2022-12-29T21:40:24.817Z,4.70
2022-12-29T21:42:51.837Z,4.50
2022-12-29T21:45:30.075Z,5.80
2022-12-29T21:48:28.934Z,5.70
2022-12-29T21:51:16.982Z,5.40
2022-12-29T21:53:44.962Z,3.30
2022-12-29T21:56:19.201Z,4.00
2022-12-29T21:59:06.716Z,4.80
2022-12-29T22:01:54.325Z,5.00
2022-12-29T22:04:41.746Z,4.60
2022-12-29T22:07:28.676Z,5.60
2022-12-29T22:10:14.480Z,5.30
2022-12-29T22:13:00.460Z,5.50
2022-12-29T22:15:29.394Z,5.90
2022-12-29T22:17:56.887Z,5.80
2022-12-29T22:20:27.102Z,5.00
2022-12-29T22:22:54.357Z,6.10
2022-12-29T22:25:21.691Z,6.50
2022-12-29T22:27:52.984Z,6.80
2022-12-29T22:30:22.871Z,7.80
2022-12-29T22:32:49.849Z,7.30
2022-12-29T22:35:16.863Z,5.70
2022-12-29T22:37:43.909Z,7.20
2022-12-29T22:40:11.517Z,6.80
2022-12-29T22:42:38.927Z,4.60
2022-12-29T22:45:06.871Z,5.40
2022-12-29T22:47:34.347Z,4.60
2022-12-29T22:50:01.347Z,6.70
2022-12-29T22:52:28.345Z,6.10
2022-12-29T22:54:55.175Z,6.50
2022-12-29T22:57:22.161Z,4.10
2022-12-29T22:59:49.175Z,5.60
2022-12-29T23:02:16.303Z,7.30
2022-12-29T23:07:30.611Z,5.00
2022-12-29T23:09:57.652Z,6.40
2022-12-29T23:12:24.719Z,5.10
2022-12-29T23:14:51.779Z,6.80
2022-12-29T23:17:18.888Z,4.90
2022-12-29T23:19:45.869Z,4.80
2022-12-29T23:22:13.078Z,6.80
2022-12-29T23:24:40.044Z,7.70
2022-12-29T23:27:06.967Z,5.90
2022-12-29T23:29:34.015Z,6.40
2022-12-29T23:32:01.083Z,3.60
2022-12-29T23:34:28.118Z,5.10
2022-12-29T23:36:55.073Z,6.60
2022-12-29T23:39:24.545Z,6.10
2022-12-29T23:41:51.874Z,5.60
2022-12-29T23:44:18.969Z,7.40
2022-12-29T23:46:46.209Z,7.20
2022-12-29T23:49:13.285Z,6.00
2022-12-29T23:51:40.305Z,5.40
2022-12-29T23:54:07.295Z,5.30
2022-12-29T23:56:34.203Z,5.90
2022-12-29T23:59:04.217Z,4.60
